Historyczne dane pomiarowe

Dodano dane terminowe – wersja testowa.

Dane z okresu 1951-2019

Wersja bazy: 1.34 [2019-03-16, lista zmian], aktualizacja planowana na 2019-04-15

Dane meteo z obszaru Polski uzyskane na podstawie danych udostępnionych przez Instytut Meteorologii i Gospodarki Wodnej – Państwowy Instytut Badawczy.

 

Wybierz Datę:    

       

TemperaturaWilgotnośćWiatrCiśnienieOpadyŚniegCzas trwania zjawisk
 Stacja t tx tn tng RH VA  wxwx mslp ppp RRR   cm mm wxwxwxwxwxwxwx
1961-08-14 14.5 19.4 8.1 5.0 77.3- 3.7 1.3---- 0.0------------
1961-08-13 14.8 18.2 13.4 14.1 79.8- 6.7 1.7---- 0.0------------
1961-08-12 18.2 23.1 16.4 16.0 86.0- 6.3 1.0---- 6.5------------
1961-08-11 20.4 25.8 16.4 16.0 88.3- 5.3 1.0---- 9.0------------
1961-08-10 22.3 27.3 15.9 13.5 78.5- 4.3 2.3---- 15.4------------
1961-08-09 22.1 29.3 13.8 11.4 71.0- 2.7 2.0---- 1.2------------
1961-08-08 19.3 24.4 12.8 8.7 65.0- 4.0 2.0---- 0.0------------
1961-08-07 21.5 28.1 17.3 14.1 79.8- 3.3 1.7---- 0.1------------
1961-08-06 22.4 31.6 13.5 11.1 74.3- 1.0 2.0---- 0.0------------
1961-08-05 17.5 23.7 15.0 13.5 81.0- 7.3 2.0---- 0.0------------
1961-08-04 16.0 21.1 7.5 4.4 75.0- 4.7 2.3---- 0.0------------
1961-08-03 16.9 20.8 13.0 10.4 83.5- 5.3 2.0---- 0.0------------
1961-08-02 19.2 26.2 9.4 6.4 63.8- 0.0 2.3---- 0.0------------
1961-08-01 13.2 17.1 12.1 11.4 91.0- 6.0 3.3---- 3.9------------
1961-07-31 14.5 18.3 12.7 12.9 89.0- 8.0 3.7---- 4.1------------
1961-07-30 13.1 14.9 12.2 11.7 96.5- 8.0 3.0---- 18.4------------
1961-07-29 14.4 19.2 13.0 12.7 85.8- 7.7 1.7---- 2.5------------
1961-07-28 18.0 23.1 15.7 13.5 82.3- 7.7 2.0---- 19.3------------
1961-07-27 21.2 26.0 13.8 10.3 62.0- 7.7 2.7---- 0.0------------
1961-07-26 16.6 21.2 11.0 7.7 75.3- 8.0 2.7---- 0.0------------
1961-07-25 14.4 17.8 8.2 4.4 78.5- 8.0 2.3---- 0.0------------
1961-07-24 15.2 19.3 13.0 12.0 71.3- 7.0 2.3---- 0.0------------
1961-07-23 15.2 18.1 12.6 11.1 81.3- 8.0 2.0---- 0.0------------
1961-07-22 14.8 20.6 13.5 13.0 85.8- 7.7 3.7---- 4.6------------
1961-07-21 15.5 19.8 10.6 7.7 83.3- 8.0 2.7---- 4.2------------
1961-07-20 16.3 22.4 9.6 7.9 76.8- 4.3 1.0---- 0.0------------
1961-07-19 14.0 20.0 9.3 6.2 92.0- 2.0 0.7---- 9.3------------
1961-07-18 14.4 18.3 10.2 8.1 86.8- 5.3 2.7---- 0.0------------
1961-07-17 15.9 23.4 9.5 7.7 82.3- 7.3 1.7---- 1.1------------
1961-07-16 15.3 18.0 10.9 8.3 89.8- 6.0 2.3---- 4.5------------
1961-07-15 16.4 23.6 10.2 8.0 80.3- 4.7 3.0---- 1.4------------
1961-07-14 15.7 20.3 13.8 12.5 74.8- 7.0 2.7---- 0.0------------
1961-07-13 22.2 29.7 14.6 12.5 69.0- 4.0 4.3---- 3.2------------
1961-07-12 18.8 26.3 11.0 7.7 84.8- 3.7 1.0---- 2.1------------
1961-07-11 16.1 22.3 10.6 8.8 65.3- 2.3 2.7---- 8.0------------
1961-07-10 14.4 19.0 11.0 9.2 75.3- 4.3 3.0---- 1.6------------
1961-07-09 16.7 24.4 9.2 5.3 69.0- 5.3 3.3---- 2.3------------
1961-07-08 15.3 21.6 8.3 5.0 64.0- 4.3 1.3---- 0.0------------
1961-07-07 12.5 18.1 9.1 6.0 75.3- 6.7 2.7---- 0.0------------
1961-07-06 13.0 17.6 6.5 4.0 75.8- 4.7 3.3---- 0.1------------
1961-07-05 13.5 19.8 10.8 12.3 73.3- 5.7 2.7---- 0.0------------
1961-07-04 21.1 25.9 16.7 13.7 80.0- 6.0 0.7---- 3.8------------
1961-07-03 24.1 31.3 10.5 7.7 52.0- 1.7 0.7---- 0.0------------
1961-07-02 21.5 29.3 10.7 8.1 60.3- 0.0 1.3---- 0.0------------
1961-07-01 19.6 26.5 10.4 8.1 63.0- 0.3 2.0---- 0.0------------
1961-06-30 18.4 25.7 9.6 7.1 67.5- 0.0 1.7---- 0.0------------
1961-06-29 16.0 19.5 9.9 7.2 76.0- 7.7 1.7---- 0.0------------
1961-06-28 15.0 19.7 11.5 10.5 75.8- 6.3 3.3---- 3.2------------
1961-06-27 23.3 34.0 16.3 12.5 75.3- 4.7 2.3---- 21.5------------
1961-06-26 23.1 29.8 13.3 10.7 67.3- 4.7 2.0---- 0.0------------
1961-06-25 21.1 28.5 12.3 9.6 63.5- 2.7 3.0---- 0.0------------
1961-06-24 17.9 24.1 10.9 8.5 64.5- 2.0 3.3---- 0.0------------
1961-06-23 18.1 23.5 14.8 14.2 77.0- 5.3 1.3---- 3.2------------
1961-06-22 17.0 22.7 11.0 9.0 58.5- 2.7 1.3---- 7.9------------
1961-06-21 15.7 23.7 4.2 1.7 74.5- 4.0 4.0---- 3.5------------
1961-06-20 14.4 20.7 8.0 4.1 56.5- 1.0 2.0---- 0.0------------
1961-06-19 17.6 21.0 11.7 11.0 69.8- 5.3 2.3---- 0.2------------
1961-06-18 19.7 27.3 11.7 8.9 66.5- 4.0 2.0---- 0.0------------
1961-06-17 17.5 22.9 8.8 5.7 66.8- 3.0 2.7---- 0.0------------
1961-06-16 12.9 17.3 10.9 10.3 82.8- 6.0 2.3---- 0.0------------
444.2 ms

 

Źródłem pochodzenia danych jest Instytut Meteorologii i Gospodarki Wodnej – Państwowy Instytut Badawczy. Dane Instytutu Meteorologii i Gospodarki Wodnej – Państwowego Instytutu Badawczego zostały przetworzone.

Dane źródłowe można odnaleźć na stronie https://dane.imgw.pl